createdAt,value
2022-10-16T00:01:46.256Z,3.33
2022-10-16T00:04:14.647Z,3.87
2022-10-16T00:06:42.403Z,5.47
2022-10-16T00:09:10.533Z,3.93
2022-10-16T00:11:40.545Z,3.33
2022-10-16T00:14:09.955Z,3.47
2022-10-16T00:16:37.756Z,4.57
2022-10-16T00:19:07.369Z,4.00
2022-10-16T00:21:35.800Z,4.27
2022-10-16T00:24:22.342Z,5.77
2022-10-16T00:26:51.741Z,3.20
2022-10-16T00:29:19.737Z,5.00
2022-10-16T00:31:47.441Z,3.67
2022-10-16T00:34:16.591Z,4.63
2022-10-16T00:36:44.365Z,5.13
2022-10-16T00:39:12.191Z,5.37
2022-10-16T00:41:39.995Z,4.23
2022-10-16T00:44:40.944Z,5.23
2022-10-16T00:47:11.310Z,6.03
2022-10-16T00:49:40.734Z,5.53
2022-10-16T00:52:08.598Z,3.23
2022-10-16T00:54:36.436Z,3.07
2022-10-16T00:57:07.374Z,2.90
2022-10-16T00:59:38.766Z,4.30
2022-10-16T01:02:09.966Z,3.23
2022-10-16T01:04:42.404Z,2.73
2022-10-16T01:07:16.319Z,7.07
2022-10-16T01:09:53.597Z,3.00
2022-10-16T01:12:29.350Z,3.50
2022-10-16T01:15:01.101Z,2.80
2022-10-16T01:17:35.528Z,3.63
2022-10-16T01:20:12.090Z,2.40
2022-10-16T01:22:48.944Z,2.60
2022-10-16T01:25:27.238Z,2.93
2022-10-16T01:27:57.119Z,3.83
2022-10-16T01:30:28.075Z,3.20
2022-10-16T01:33:01.419Z,2.30
2022-10-16T01:35:34.316Z,2.30
2022-10-16T01:38:06.950Z,3.70
2022-10-16T01:40:37.917Z,2.30
2022-10-16T01:43:10.893Z,3.97
2022-10-16T01:45:39.056Z,3.00
2022-10-16T01:48:10.575Z,3.60
2022-10-16T01:50:41.741Z,2.47
2022-10-16T01:53:14.198Z,2.10
2022-10-16T01:55:48.043Z,1.80
2022-10-16T01:58:17.511Z,1.77
2022-10-16T02:00:47.688Z,3.53
2022-10-16T02:03:18.165Z,3.87
2022-10-16T02:05:49.119Z,2.67
2022-10-16T02:08:17.058Z,1.93
2022-10-16T02:10:45.121Z,1.70
2022-10-16T02:13:18.890Z,3.63
2022-10-16T02:15:48.107Z,1.67
2022-10-16T02:18:16.572Z,1.87
2022-10-16T02:20:59.450Z,3.17
2022-10-16T02:23:36.410Z,2.00
2022-10-16T02:26:08.392Z,1.87
2022-10-16T02:28:43.122Z,1.83
2022-10-16T02:31:14.821Z,1.10
2022-10-16T02:33:45.398Z,0.87
2022-10-16T02:36:14.230Z,1.60
2022-10-16T02:38:42.630Z,1.10
2022-10-16T02:41:10.744Z,2.10
2022-10-16T02:43:38.482Z,1.87
2022-10-16T02:46:06.491Z,1.27
2022-10-16T02:48:35.895Z,1.30
2022-10-16T02:51:03.652Z,1.10
2022-10-16T02:53:31.493Z,3.20
2022-10-16T02:55:59.419Z,0.80
2022-10-16T02:58:27.174Z,1.60
2022-10-16T03:00:55.167Z,0.83
2022-10-16T03:03:23.182Z,4.20
2022-10-16T03:05:52.340Z,3.83
2022-10-16T03:08:24.381Z,1.13
2022-10-16T03:10:52.486Z,0.70
2022-10-16T03:13:21.355Z,1.00
2022-10-16T03:15:49.404Z,3.67
2022-10-16T03:18:17.341Z,0.77
2022-10-16T03:20:45.683Z,1.67
2022-10-16T03:23:15.753Z,1.57
2022-10-16T03:25:43.608Z,2.20
2022-10-16T03:28:11.344Z,0.93
2022-10-16T03:30:40.575Z,2.33
2022-10-16T03:33:08.413Z,1.97
2022-10-16T03:35:36.121Z,1.07
2022-10-16T03:38:03.899Z,0.80
2022-10-16T03:40:33.227Z,0.90
2022-10-16T03:43:01.244Z,0.70
2022-10-16T03:45:29.046Z,0.70
2022-10-16T03:47:56.996Z,1.00
2022-10-16T03:50:24.701Z,1.97
2022-10-16T03:52:52.466Z,2.70
2022-10-16T03:55:20.250Z,2.50
2022-10-16T03:57:49.704Z,0.90
2022-10-16T04:00:17.884Z,1.17
2022-10-16T04:05:14.459Z,0.77
2022-10-16T04:07:42.265Z,0.90
2022-10-16T04:10:10.618Z,2.00
2022-10-16T04:12:38.565Z,1.40
2022-10-16T04:15:08.843Z,4.20
2022-10-16T04:17:36.666Z,2.30
2022-10-16T04:20:05.213Z,2.03
2022-10-16T04:22:33.021Z,2.30
2022-10-16T04:25:00.840Z,1.67
2022-10-16T04:27:29.518Z,4.37
2022-10-16T04:29:57.444Z,1.37
2022-10-16T04:32:26.927Z,1.30
2022-10-16T04:34:54.958Z,2.20
2022-10-16T04:37:26.191Z,1.27
2022-10-16T04:39:54.352Z,1.50
2022-10-16T04:42:22.823Z,3.00
2022-10-16T04:44:50.726Z,1.10
2022-10-16T04:47:18.493Z,1.50
2022-10-16T04:49:47.714Z,0.97
2022-10-16T04:52:15.880Z,2.37
2022-10-16T04:54:45.990Z,1.43
2022-10-16T04:57:13.753Z,2.03
2022-10-16T04:59:41.510Z,1.40
2022-10-16T05:02:09.301Z,3.60
2022-10-16T05:04:37.041Z,1.43
2022-10-16T05:07:06.119Z,1.97
2022-10-16T05:09:33.923Z,1.23
2022-10-16T05:12:01.704Z,1.67
2022-10-16T05:14:29.545Z,3.83
2022-10-16T05:16:57.484Z,1.20
2022-10-16T05:19:27.736Z,1.67
2022-10-16T05:21:56.465Z,1.30
2022-10-16T05:24:25.606Z,1.93
2022-10-16T05:26:53.440Z,2.00
2022-10-16T05:29:21.752Z,3.20
2022-10-16T05:31:53.078Z,3.37
2022-10-16T05:34:21.192Z,3.30
2022-10-16T05:36:48.996Z,2.40
2022-10-16T05:39:18.454Z,2.80
2022-10-16T05:41:48.038Z,1.83
2022-10-16T05:44:17.057Z,3.90
2022-10-16T05:46:45.169Z,1.80
2022-10-16T05:49:12.942Z,1.30
2022-10-16T05:51:40.915Z,1.40
2022-10-16T05:54:08.794Z,1.50
2022-10-16T05:56:37.922Z,3.57
2022-10-16T05:59:07.541Z,2.40
2022-10-16T06:01:36.213Z,3.20
2022-10-16T06:04:04.323Z,1.77
2022-10-16T06:06:32.403Z,1.63
2022-10-16T06:09:00.747Z,2.03
2022-10-16T06:11:31.429Z,2.53
2022-10-16T06:14:02.581Z,2.13
2022-10-16T06:16:31.766Z,2.47
2022-10-16T06:19:00.299Z,1.27
2022-10-16T06:21:30.007Z,4.33
2022-10-16T06:23:58.650Z,4.20
2022-10-16T06:26:28.649Z,2.10
2022-10-16T06:28:57.498Z,1.97
2022-10-16T06:31:28.443Z,2.00
2022-10-16T06:33:58.733Z,2.57
2022-10-16T06:36:27.244Z,4.10
2022-10-16T06:38:55.350Z,3.90
2022-10-16T06:41:24.736Z,3.70
2022-10-16T06:43:53.127Z,3.33
2022-10-16T06:46:23.783Z,4.57
2022-10-16T06:48:52.006Z,4.87
2022-10-16T06:51:22.731Z,6.13
2022-10-16T06:54:04.960Z,5.87
2022-10-16T06:56:34.254Z,5.50
2022-10-16T06:59:02.771Z,4.57
2022-10-16T07:01:31.354Z,4.17
2022-10-16T07:03:59.307Z,5.10
2022-10-16T07:06:29.549Z,5.13
2022-10-16T07:08:57.381Z,7.50
2022-10-16T07:11:25.968Z,7.33
2022-10-16T07:13:55.839Z,7.40
2022-10-16T07:16:26.013Z,5.97
2022-10-16T07:18:59.128Z,5.13
2022-10-16T07:21:30.538Z,3.97
2022-10-16T07:24:01.963Z,5.83
2022-10-16T07:26:31.984Z,6.83
2022-10-16T07:28:59.990Z,3.80
2022-10-16T07:31:28.416Z,4.27
2022-10-16T07:33:56.942Z,6.30
2022-10-16T07:36:24.751Z,4.60
2022-10-16T07:38:57.106Z,5.60
2022-10-16T07:41:28.569Z,5.17
2022-10-16T07:44:00.965Z,4.00
2022-10-16T07:46:29.600Z,3.47
2022-10-16T07:48:58.032Z,5.57
2022-10-16T07:51:27.116Z,4.43
2022-10-16T07:53:56.727Z,4.47
2022-10-16T07:56:25.114Z,4.67
2022-10-16T07:58:53.833Z,4.27
2022-10-16T08:01:21.996Z,3.97
2022-10-16T08:03:52.061Z,3.17
2022-10-16T08:06:25.011Z,3.97
2022-10-16T08:08:57.976Z,3.20
2022-10-16T08:11:26.086Z,3.93
2022-10-16T08:13:53.977Z,4.80
2022-10-16T08:16:22.165Z,4.97
2022-10-16T08:18:52.206Z,2.87
2022-10-16T08:21:22.050Z,4.10
2022-10-16T08:23:54.622Z,3.80
2022-10-16T08:26:28.231Z,3.30
2022-10-16T08:28:56.357Z,4.57
2022-10-16T08:31:24.202Z,5.53
2022-10-16T08:33:53.162Z,3.93
2022-10-16T08:36:21.112Z,4.77
2022-10-16T08:38:51.502Z,4.67
2022-10-16T08:41:48.463Z,5.40
2022-10-16T08:44:32.977Z,4.40
2022-10-16T08:47:08.358Z,5.57
2022-10-16T08:49:36.411Z,5.63
2022-10-16T08:52:04.496Z,5.40
2022-10-16T08:54:38.510Z,5.47
2022-10-16T08:57:13.200Z,5.97
2022-10-16T08:59:42.412Z,7.57
2022-10-16T09:02:26.462Z,6.80
2022-10-16T09:05:05.582Z,8.30
2022-10-16T09:07:40.097Z,8.33
2022-10-16T09:10:23.498Z,7.13
2022-10-16T09:13:04.898Z,8.10
2022-10-16T09:15:41.631Z,5.60
2022-10-16T09:18:17.542Z,4.30
2022-10-16T09:20:54.057Z,4.10
2022-10-16T09:23:27.570Z,3.73
2022-10-16T09:25:57.696Z,4.23
2022-10-16T09:28:25.726Z,4.30
2022-10-16T09:30:55.245Z,5.93
2022-10-16T09:33:27.459Z,5.03
2022-10-16T09:35:59.315Z,5.73
2022-10-16T09:38:30.292Z,5.57
2022-10-16T09:41:03.135Z,6.07
2022-10-16T09:43:40.779Z,5.57
2022-10-16T09:46:22.983Z,5.97
2022-10-16T09:48:52.969Z,6.93
2022-10-16T09:51:23.800Z,8.17
2022-10-16T09:53:56.928Z,9.93
2022-10-16T09:56:27.433Z,8.43
2022-10-16T09:58:57.150Z,12.50
2022-10-16T10:01:31.274Z,7.93
2022-10-16T10:04:02.229Z,11.53
2022-10-16T10:06:34.630Z,8.57
2022-10-16T10:09:07.084Z,8.20
2022-10-16T10:11:48.979Z,7.53
2022-10-16T10:14:24.364Z,9.70
2022-10-16T10:16:54.396Z,9.13
2022-10-16T10:19:26.139Z,7.47
2022-10-16T10:21:55.895Z,6.90
2022-10-16T10:24:23.686Z,6.80
2022-10-16T10:26:59.613Z,6.77
2022-10-16T10:29:39.884Z,7.23
2022-10-16T10:32:19.691Z,9.73
2022-10-16T10:35:01.973Z,7.73
2022-10-16T10:37:48.839Z,8.10
2022-10-16T10:40:30.114Z,6.40
2022-10-16T10:43:03.484Z,5.10
2022-10-16T10:45:44.114Z,5.77
2022-10-16T10:48:43.146Z,9.63
2022-10-16T10:51:15.974Z,4.93
2022-10-16T10:53:52.966Z,5.03
2022-10-16T10:56:39.480Z,6.43
2022-10-16T10:59:39.571Z,5.80
2022-10-16T11:02:16.243Z,6.53
2022-10-16T11:05:14.480Z,6.73
2022-10-16T11:07:56.326Z,7.40
2022-10-16T11:10:28.244Z,6.93
2022-10-16T11:13:02.109Z,6.77
2022-10-16T11:15:34.367Z,7.53
2022-10-16T11:18:08.194Z,7.03
2022-10-16T11:20:45.686Z,8.53
2022-10-16T11:23:18.638Z,6.63
2022-10-16T11:25:49.236Z,5.50
2022-10-16T11:28:22.083Z,6.17
2022-10-16T11:30:55.667Z,6.03
2022-10-16T11:33:32.714Z,6.03
2022-10-16T11:36:10.624Z,6.30
2022-10-16T11:38:45.559Z,6.03
2022-10-16T11:41:24.231Z,5.80
2022-10-16T11:44:04.656Z,6.30
2022-10-16T11:46:47.868Z,5.33
2022-10-16T11:49:28.507Z,6.60
2022-10-16T11:52:07.848Z,5.20
2022-10-16T11:54:41.428Z,5.17
2022-10-16T11:57:15.073Z,5.23
2022-10-16T11:59:47.644Z,4.67
2022-10-16T12:02:33.470Z,5.10
2022-10-16T12:05:17.624Z,4.43
2022-10-16T12:07:53.778Z,3.87
2022-10-16T12:10:27.399Z,4.47
2022-10-16T12:12:57.304Z,3.13
2022-10-16T12:15:54.637Z,4.50
2022-10-16T12:18:24.137Z,3.10
2022-10-16T12:20:59.865Z,2.87
2022-10-16T12:23:29.177Z,3.33
2022-10-16T12:25:58.860Z,2.50
2022-10-16T12:28:29.997Z,1.93
2022-10-16T12:31:00.093Z,3.50
2022-10-16T12:33:29.885Z,2.90
2022-10-16T12:36:00.224Z,2.17
2022-10-16T12:38:34.319Z,2.70
2022-10-16T12:41:04.930Z,3.40
2022-10-16T12:43:43.236Z,1.40
2022-10-16T12:46:40.134Z,1.70
2022-10-16T12:49:22.240Z,1.97
2022-10-16T12:51:50.237Z,1.83
2022-10-16T12:54:21.741Z,1.97
2022-10-16T12:56:59.875Z,2.50
2022-10-16T12:59:37.380Z,1.60
2022-10-16T13:02:28.889Z,2.20
2022-10-16T13:05:19.026Z,1.47
2022-10-16T13:08:01.703Z,1.50
2022-10-16T13:10:40.298Z,1.60
2022-10-16T13:13:29.597Z,2.60
2022-10-16T13:16:06.678Z,2.53
2022-10-16T13:18:42.800Z,1.80
2022-10-16T13:21:24.472Z,2.07
2022-10-16T13:24:02.512Z,2.10
2022-10-16T13:26:41.887Z,1.47
2022-10-16T13:29:09.859Z,2.03
2022-10-16T13:31:40.986Z,3.40
2022-10-16T13:34:16.602Z,1.90
2022-10-16T13:36:51.249Z,1.70
2022-10-16T13:39:24.958Z,1.80
2022-10-16T13:44:44.120Z,1.60
2022-10-16T13:47:19.821Z,1.70
2022-10-16T13:49:48.802Z,2.50
2022-10-16T13:52:23.332Z,1.97
2022-10-16T13:54:51.804Z,4.13
2022-10-16T13:57:27.508Z,2.03
2022-10-16T13:59:56.014Z,2.20
2022-10-16T14:02:29.294Z,1.60
2022-10-16T14:04:59.769Z,1.80
2022-10-16T14:07:29.738Z,2.70
2022-10-16T14:10:01.962Z,2.20
2022-10-16T14:12:31.635Z,2.80
2022-10-16T14:15:01.988Z,3.33
2022-10-16T14:17:35.158Z,1.37
2022-10-16T14:20:07.642Z,1.43
2022-10-16T14:22:37.619Z,1.23
2022-10-16T14:25:28.443Z,1.30
2022-10-16T14:28:03.741Z,2.60
2022-10-16T14:30:33.245Z,1.57
2022-10-16T14:33:02.912Z,1.50
2022-10-16T14:35:33.318Z,1.10
2022-10-16T14:38:03.084Z,1.20
2022-10-16T14:40:33.301Z,1.27
2022-10-16T14:43:03.468Z,1.93
2022-10-16T14:45:33.800Z,2.60
2022-10-16T14:48:05.191Z,2.37
2022-10-16T14:50:33.297Z,1.23
2022-10-16T14:53:02.588Z,1.20
2022-10-16T14:55:30.564Z,2.80
2022-10-16T14:58:00.788Z,1.23
2022-10-16T15:00:30.712Z,1.50
2022-10-16T15:02:58.617Z,3.00
2022-10-16T15:05:28.144Z,2.13
2022-10-16T15:07:57.245Z,2.00
2022-10-16T15:10:27.980Z,1.93
2022-10-16T15:12:56.695Z,1.47
2022-10-16T15:15:36.956Z,1.30
2022-10-16T15:18:05.844Z,1.27
2022-10-16T15:20:36.494Z,1.87
2022-10-16T15:23:05.986Z,1.57
2022-10-16T15:25:38.525Z,1.50
2022-10-16T15:28:07.868Z,1.60
2022-10-16T15:30:38.226Z,3.20
2022-10-16T15:33:07.892Z,2.77
2022-10-16T15:35:35.979Z,11.43
2022-10-16T15:38:03.911Z,2.30
2022-10-16T15:40:32.230Z,3.00
2022-10-16T15:43:00.282Z,3.23
2022-10-16T15:45:28.355Z,3.53
2022-10-16T15:47:57.768Z,3.10
2022-10-16T15:50:26.262Z,2.83
2022-10-16T15:52:55.272Z,2.87
2022-10-16T15:55:23.445Z,3.70
2022-10-16T15:57:52.719Z,3.50
2022-10-16T16:00:22.950Z,3.53
2022-10-16T16:02:56.469Z,3.80
2022-10-16T16:05:25.761Z,4.83
2022-10-16T16:07:53.932Z,6.20
2022-10-16T16:10:22.707Z,3.70
2022-10-16T16:12:52.870Z,3.73
2022-10-16T16:15:21.825Z,2.90
2022-10-16T16:17:51.017Z,2.63
2022-10-16T16:20:19.253Z,2.70
2022-10-16T16:22:49.304Z,3.93
2022-10-16T16:25:17.498Z,4.00
2022-10-16T16:27:45.755Z,3.13
2022-10-16T16:30:18.322Z,3.67
2022-10-16T16:32:48.121Z,4.90
2022-10-16T16:35:18.289Z,3.23
2022-10-16T16:37:48.982Z,4.87
2022-10-16T16:40:17.486Z,4.07
2022-10-16T16:42:45.557Z,2.90
2022-10-16T16:45:13.533Z,3.53
2022-10-16T16:47:41.494Z,4.20
2022-10-16T16:50:10.072Z,4.00
2022-10-16T16:52:38.128Z,5.53
2022-10-16T16:55:08.211Z,3.93
2022-10-16T16:57:36.400Z,4.03
2022-10-16T17:00:07.381Z,3.50
2022-10-16T17:02:35.381Z,4.47
2022-10-16T17:05:03.292Z,5.77
2022-10-16T17:07:35.390Z,4.83
2022-10-16T17:10:03.875Z,5.40
2022-10-16T17:12:33.355Z,6.23
2022-10-16T17:15:01.385Z,6.47
2022-10-16T17:17:30.249Z,5.07
2022-10-16T17:19:58.670Z,7.57
2022-10-16T17:22:27.033Z,4.90
2022-10-16T17:24:55.312Z,5.57
2022-10-16T17:27:23.826Z,7.63
2022-10-16T17:29:54.045Z,8.33
2022-10-16T17:32:23.864Z,5.33
2022-10-16T17:35:10.665Z,8.87
2022-10-16T17:37:38.767Z,6.53
2022-10-16T17:40:07.900Z,6.60
2022-10-16T17:42:36.111Z,5.47
2022-10-16T17:45:06.171Z,6.17
2022-10-16T17:47:34.258Z,5.47
2022-10-16T17:50:02.482Z,7.03
2022-10-16T17:52:30.820Z,6.43
2022-10-16T17:54:59.314Z,5.37
2022-10-16T17:57:27.346Z,7.00
2022-10-16T17:59:55.846Z,6.50
2022-10-16T18:02:26.058Z,5.37
2022-10-16T18:04:55.758Z,8.23
2022-10-16T18:07:23.981Z,6.33
2022-10-16T18:10:10.727Z,8.83
2022-10-16T18:12:40.532Z,6.67
2022-10-16T18:15:09.756Z,11.77
2022-10-16T18:17:39.354Z,7.20
2022-10-16T18:20:09.109Z,7.83
2022-10-16T18:22:38.145Z,8.87
2022-10-16T18:25:07.552Z,10.90
2022-10-16T18:27:36.263Z,9.47
2022-10-16T18:30:05.489Z,9.67
2022-10-16T18:32:35.910Z,9.83
2022-10-16T18:35:05.785Z,8.57
2022-10-16T18:37:36.546Z,10.67
2022-10-16T18:40:05.260Z,8.90
2022-10-16T18:42:33.337Z,12.20
2022-10-16T18:45:01.545Z,10.17
2022-10-16T18:47:30.475Z,9.23
2022-10-16T18:49:58.745Z,7.07
2022-10-16T18:52:28.987Z,10.53
2022-10-16T18:54:58.675Z,8.00
2022-10-16T18:57:30.301Z,8.13
2022-10-16T18:59:58.603Z,8.07
2022-10-16T19:02:26.887Z,8.03
2022-10-16T19:04:55.019Z,8.70
2022-10-16T19:07:23.144Z,7.83
2022-10-16T19:09:52.735Z,8.77
2022-10-16T19:12:20.689Z,10.87
2022-10-16T19:14:49.433Z,8.33
2022-10-16T19:17:17.571Z,12.27
2022-10-16T19:19:46.559Z,12.60
2022-10-16T19:22:28.054Z,12.20
2022-10-16T19:24:57.792Z,13.47
2022-10-16T19:27:27.328Z,12.40
2022-10-16T19:29:55.871Z,10.70
2022-10-16T19:32:24.713Z,11.23
2022-10-16T19:34:53.241Z,11.57
2022-10-16T19:37:25.909Z,12.70
2022-10-16T19:39:53.900Z,12.33
2022-10-16T19:42:23.303Z,15.37
2022-10-16T19:44:51.633Z,12.43
2022-10-16T19:47:22.214Z,10.73
2022-10-16T19:49:52.536Z,12.00
2022-10-16T19:52:22.234Z,13.93
2022-10-16T19:54:50.502Z,14.03
2022-10-16T19:57:18.781Z,14.20
2022-10-16T19:59:48.240Z,12.90
2022-10-16T20:02:16.319Z,12.83
2022-10-16T20:04:44.674Z,14.53
2022-10-16T20:07:12.818Z,10.70
2022-10-16T20:09:41.066Z,13.37
2022-10-16T20:12:09.098Z,12.50
2022-10-16T20:14:37.578Z,12.73
2022-10-16T20:17:07.149Z,11.83
2022-10-16T20:19:35.359Z,12.87
2022-10-16T20:22:03.739Z,17.57
2022-10-16T20:24:32.031Z,15.83
2022-10-16T20:27:00.952Z,17.67
2022-10-16T20:29:28.924Z,15.77
2022-10-16T20:31:56.900Z,14.50
2022-10-16T20:34:26.284Z,14.03
2022-10-16T20:36:54.512Z,14.17
2022-10-16T20:39:22.502Z,12.50
2022-10-16T20:41:50.475Z,14.80
2022-10-16T20:44:18.390Z,15.00
2022-10-16T20:46:46.276Z,14.97
2022-10-16T20:49:28.509Z,14.30
2022-10-16T20:52:03.795Z,17.13
2022-10-16T20:54:31.797Z,14.17
2022-10-16T20:56:59.993Z,14.40
2022-10-16T20:59:28.251Z,12.67
2022-10-16T21:01:56.536Z,18.97
2022-10-16T21:04:24.616Z,13.07
2022-10-16T21:06:52.867Z,16.30
2022-10-16T21:09:22.343Z,14.23
2022-10-16T21:11:50.290Z,12.93
2022-10-16T21:14:18.354Z,12.13
2022-10-16T21:16:47.080Z,18.90
2022-10-16T21:19:15.102Z,18.37
2022-10-16T21:21:43.136Z,14.97
2022-10-16T21:24:21.793Z,15.17
2022-10-16T21:26:51.371Z,14.83
2022-10-16T21:29:20.233Z,18.20
2022-10-16T21:31:48.316Z,16.33
2022-10-16T21:34:16.199Z,17.33
2022-10-16T21:36:47.417Z,16.37
2022-10-16T21:39:17.380Z,17.70
2022-10-16T21:41:47.600Z,16.80
2022-10-16T21:44:17.697Z,14.17
2022-10-16T21:46:46.088Z,14.13
2022-10-16T21:49:17.265Z,14.73
2022-10-16T21:51:46.946Z,16.57
2022-10-16T21:54:16.739Z,15.97
2022-10-16T21:56:45.145Z,16.80
2022-10-16T21:59:14.735Z,19.53
2022-10-16T22:01:44.555Z,16.37
2022-10-16T22:04:13.457Z,13.63
2022-10-16T22:06:44.937Z,18.57
2022-10-16T22:09:16.153Z,18.93
2022-10-16T22:11:45.997Z,22.33
2022-10-16T22:14:16.449Z,12.83
2022-10-16T22:16:46.603Z,14.57
2022-10-16T22:19:15.701Z,16.17
2022-10-16T22:21:46.026Z,19.53
2022-10-16T22:24:15.529Z,15.67
2022-10-16T22:26:43.806Z,17.47
2022-10-16T22:29:13.292Z,18.30
2022-10-16T22:31:41.186Z,17.67
2022-10-16T22:34:14.151Z,22.53
2022-10-16T22:36:42.398Z,18.73
2022-10-16T22:39:10.728Z,23.63
2022-10-16T22:41:38.804Z,19.10
2022-10-16T22:44:06.826Z,15.37
2022-10-16T22:46:34.629Z,19.20
2022-10-16T22:49:02.406Z,18.37
2022-10-16T22:51:31.937Z,12.33
2022-10-16T22:54:00.210Z,17.83
2022-10-16T22:56:28.531Z,17.50
2022-10-16T22:58:56.528Z,17.83
2022-10-16T23:01:27.148Z,13.90
2022-10-16T23:03:55.844Z,11.03
2022-10-16T23:06:24.102Z,13.93
2022-10-16T23:08:54.629Z,12.27
2022-10-16T23:11:22.766Z,12.50
2022-10-16T23:13:50.909Z,11.73
2022-10-16T23:16:20.997Z,13.13
2022-10-16T23:18:49.757Z,13.90
2022-10-16T23:21:19.503Z,15.37
2022-10-16T23:23:47.589Z,17.27
2022-10-16T23:26:19.718Z,15.13
2022-10-16T23:28:48.135Z,13.63
2022-10-16T23:31:17.619Z,14.93
2022-10-16T23:33:46.309Z,16.97
2022-10-16T23:36:16.710Z,15.60
2022-10-16T23:38:48.066Z,15.70
2022-10-16T23:41:18.741Z,15.47
2022-10-16T23:43:47.046Z,15.20
2022-10-16T23:46:16.020Z,17.23
2022-10-16T23:48:44.423Z,13.07
2022-10-16T23:51:13.244Z,19.70
2022-10-16T23:53:41.438Z,11.00
2022-10-16T23:56:10.803Z,16.87
2022-10-16T23:58:41.022Z,16.27
